UUDDEFPO

Guest
Details From UUDD - Moscou Domodedovo
To EFPO - Pori
Flight Number -
Tags Decoded
Created
Modified
Stats Distance 685 nm / 1,269 km
Max Altitude 0 ft / 0 m
Waypoints 4
Social Downloads 1
Likes 0
Share VATSIM

Download

Looking for another format? Having issues loading an existing format? Contact us
Advertisement - Login to hide

Notes

Decoded

Route

UUDD KORIN GOGLA TOGMI

ID Type Via Altitude Latitude Longitude Leg Dist Tot Dist Heading (true) Name
O UUDD APT - 0 ft / 0 m 55.42000˚ 37.88000˚ - 0 nm - -
KORIN FIX - 0 ft / 0 m 58.10000˚ 32.08333˚ 249 nm 249 nm 313° / 308° -
GOGLA FIX - 0 ft / 0 m 60.10000˚ 26.45667˚ 210 nm 460 nm 307° / 302° -
O TOGMI FIX - 0 ft / 0 m 61.76194˚ 19.54028˚ 224 nm 685 nm 299° / 293° -

Altitude Profile

Advertisement - Login to hide

Weather


0- 5 10 15 20 25 30 35+ Temperature / ° C

Clouds and Precipitation
Forecast for 2018-05-25 06:00 UTC. Updated 2 hours ago

Ground ~20,000 ft ~40,000 ft Winds

UUDD

Details ICAO UUDD (DME)
Name Moscou Domodedovo
Region Russia
Timezone Europe/Moscow (UTC+3.0)
Stats Elevation 588 ft / 179 m (AMSL)
Location 55.409191° 37.901432°
Runways 3
Magnetic Variation 11.080° E

METAR

UUDD 250700Z 03007MPS CAVOK 16/02 Q1025 R88/010095 NOSIG

Decode

TAF

TAF UUDD 250456Z 2506/2612 03008MPS 9999 SCT030 TX19/2512Z TN06/2601Z TEMPO 2506/2517 03013MPS BECMG 2600/2602 06002MPS

Decode

Departure Runways

ID Width Length Bearing (true) Bearing (mag) Surface Threshold Offset Overrun Length
14C 148 ft / 45 m 8,754 ft / 2,668 m 146.47° 135.39° Concrete 0 ft / 0 m 0 ft / 0 m
14L 174 ft / 53 m 12,382 ft / 3,774 m 145.59° 134.51° Concrete 0 ft / 0 m 0 ft / 0 m
14R 230 ft / 70 m 11,395 ft / 3,473 m 145.45° 134.37° Concrete 0 ft / 0 m 0 ft / 0 m
32C 148 ft / 45 m 8,754 ft / 2,668 m 326.49° 315.41° Concrete 0 ft / 0 m 0 ft / 0 m
32L 230 ft / 70 m 11,395 ft / 3,473 m 325.48° 314.40° Concrete 0 ft / 0 m 0 ft / 0 m
32R 174 ft / 53 m 12,382 ft / 3,774 m 325.61° 314.53° Concrete 0 ft / 0 m 0 ft / 0 m

EFPO

Details ICAO EFPO (POR)
Name Pori
Region Finland
Timezone Europe/Helsinki (UTC+3.0)
Stats Elevation 44 ft / 13 m (AMSL)
Location 61.461174° 21.799255°
Runways 2
Magnetic Variation 8.108° E

METAR

EFPO 250650Z AUTO 20007KT CAVOK 19/M01 Q1029

Decode

TAF

Not found

Destination Runways

ID Width Length Bearing (true) Bearing (mag) Surface Threshold Offset Overrun Length
12 197 ft / 60 m 7,692 ft / 2,345 m 125.81° 117.70° Asphalt 312 ft / 95 m 0 ft / 0 m
17 98 ft / 30 m 2,623 ft / 799 m 173.89° 165.78° Asphalt 400 ft / 122 m 0 ft / 0 m
30 197 ft / 60 m 7,692 ft / 2,345 m 305.84° 297.73° Asphalt 1,132 ft / 345 m 0 ft / 0 m
35 98 ft / 30 m 2,623 ft / 799 m 353.90° 345.79° Asphalt 400 ft / 122 m 0 ft / 0 m

Approach Navaids

Runway Type Ident Frequency Range Bearing (true) Bearing (mag) Slope Elevation
30 Localiser PO 109.10 MHz 18 nm / 33 km 305.81° 297.70° - 44 ft / 13 m (AMSL)
30 Glidescope PO 109.10 MHz 10 nm / 19 km 305.83° 297.72° 3.00° 44 ft / 13 m (AMSL)